Terminal Aerodrome Forecast
Issued by NWS

Home | Current Version | Previous Version | Graphics & Text | Print | Product List | Glossary On
Versions: 1 2 3 4 5 6 7 8 9 10 11 12 13 14 15 16 17 18
000
FTUS43 KEAX 281740
TAFSTJ
TAF
KSTJ 281740Z 2818/2918 20018G28KT P6SM SCT080 SCT200
     FM282200 20015G25KT P6SM VCTS SCT060CB BKN200
     FM290100 19014KT P6SM SCT200
     FM290900 19011KT P6SM SCT030 BKN100
     FM291200 18010KT P6SM VCTS SCT050CB BKN100
     FM291500 19010KT P6SM SCT040 BKN100=

USA.gov is the U.S. government's official web portal to all federal, state and local government web resources and services.